createdAt,value
2022-12-23T00:00:29.320Z,0.00
2022-12-23T00:02:56.278Z,0.55
2022-12-23T00:05:23.196Z,0.32
2022-12-23T00:07:49.938Z,0.55
2022-12-23T00:10:16.991Z,0.10
2022-12-23T00:13:01.917Z,0.30
2022-12-23T00:15:28.437Z,0.52
2022-12-23T00:17:54.884Z,0.10
2022-12-23T00:20:21.417Z,0.32
2022-12-23T00:23:05.783Z,0.00
2022-12-23T00:25:43.846Z,0.10
2022-12-23T00:28:14.727Z,0.00
2022-12-23T00:30:53.132Z,0.10
2022-12-23T00:33:25.836Z,0.00
2022-12-23T00:35:52.876Z,0.28
2022-12-23T00:38:40.544Z,0.10
2022-12-23T00:41:30.315Z,0.10
2022-12-23T00:43:57.252Z,0.10
2022-12-23T00:46:23.885Z,0.00
2022-12-23T00:49:09.009Z,0.10
2022-12-23T00:51:35.741Z,0.20
2022-12-23T00:54:02.985Z,0.10
2022-12-23T00:56:29.504Z,0.40
2022-12-23T00:58:56.051Z,0.10
2022-12-23T01:01:41.513Z,0.10
2022-12-23T01:04:30.164Z,0.00
2022-12-23T01:06:56.751Z,0.10
2022-12-23T01:09:23.268Z,0.08
2022-12-23T01:11:49.889Z,0.25
2022-12-23T01:14:17.605Z,0.05
2022-12-23T01:16:44.383Z,0.00
2022-12-23T01:19:11.878Z,0.13
2022-12-23T01:21:38.423Z,0.10
2022-12-23T01:24:05.368Z,0.20
2022-12-23T01:26:31.885Z,0.20
2022-12-23T01:28:59.039Z,0.00
2022-12-23T01:31:27.146Z,0.10
2022-12-23T01:33:54.261Z,0.00
2022-12-23T01:36:22.181Z,0.22
2022-12-23T01:38:48.985Z,0.85
2022-12-23T01:41:40.062Z,0.57
2022-12-23T01:45:01.543Z,0.28
2022-12-23T01:47:58.501Z,0.10
2022-12-23T01:50:35.077Z,0.08
2022-12-23T01:53:13.420Z,0.25
2022-12-23T01:55:54.447Z,0.00
2022-12-23T01:58:30.236Z,0.47
2022-12-23T02:01:16.853Z,0.15
2022-12-23T02:03:45.243Z,0.10
2022-12-23T02:06:38.411Z,0.10
2022-12-23T02:09:24.406Z,0.10
2022-12-23T02:12:09.352Z,0.10
2022-12-23T02:15:32.410Z,0.47
2022-12-23T02:18:16.800Z,0.57
2022-12-23T02:21:05.864Z,0.00
2022-12-23T02:23:58.503Z,0.17
2022-12-23T02:27:01.514Z,0.20
2022-12-23T02:29:58.476Z,0.15
2022-12-23T02:32:35.823Z,0.10
2022-12-23T02:35:21.025Z,0.10
2022-12-23T02:38:02.776Z,0.43
2022-12-23T02:40:34.920Z,0.70
2022-12-23T02:43:11.589Z,1.02
2022-12-23T02:45:55.516Z,0.38
2022-12-23T02:48:31.708Z,0.00
2022-12-23T02:51:00.259Z,0.40
2022-12-23T02:53:35.572Z,0.10
2022-12-23T02:56:05.668Z,0.93
2022-12-23T02:58:37.383Z,1.35
2022-12-23T03:01:06.708Z,0.35
2022-12-23T03:03:35.477Z,1.27
2022-12-23T03:06:06.684Z,1.10
2022-12-23T03:08:43.140Z,0.68
2022-12-23T03:11:15.600Z,0.13
2022-12-23T03:14:12.988Z,0.17
2022-12-23T03:16:49.865Z,0.75
2022-12-23T03:19:54.387Z,0.38
2022-12-23T03:22:40.721Z,0.03
2022-12-23T03:25:17.595Z,0.15
2022-12-23T03:28:01.726Z,0.65
2022-12-23T03:30:29.853Z,0.22
2022-12-23T03:33:06.774Z,0.77
2022-12-23T03:35:45.433Z,0.03
2022-12-23T03:38:15.599Z,1.23
2022-12-23T03:40:46.870Z,0.00
2022-12-23T03:43:25.906Z,0.30
2022-12-23T03:46:01.039Z,0.10
2022-12-23T03:48:34.662Z,0.10
2022-12-23T03:51:14.948Z,0.77
2022-12-23T03:53:51.321Z,0.40
2022-12-23T03:56:28.322Z,0.20
2022-12-23T03:59:01.303Z,0.88
2022-12-23T04:01:46.459Z,0.55
2022-12-23T04:04:27.685Z,0.15
2022-12-23T04:07:18.949Z,0.45
2022-12-23T04:09:46.146Z,0.10
2022-12-23T04:12:14.962Z,0.00
2022-12-23T04:14:48.371Z,0.13
2022-12-23T04:17:16.413Z,0.08
2022-12-23T04:19:47.500Z,0.80
2022-12-23T04:22:15.648Z,0.85
2022-12-23T04:24:42.804Z,0.30
2022-12-23T04:27:13.171Z,0.08
2022-12-23T04:29:39.782Z,0.10
2022-12-23T04:32:07.815Z,0.22
2022-12-23T04:34:34.345Z,0.88
2022-12-23T04:37:00.896Z,0.25
2022-12-23T04:39:27.385Z,0.32
2022-12-23T04:41:53.892Z,0.13
2022-12-23T04:44:20.443Z,0.68
2022-12-23T04:46:47.014Z,0.10
2022-12-23T04:49:13.538Z,0.10
2022-12-23T04:51:40.046Z,0.10
2022-12-23T04:54:06.513Z,0.20
2022-12-23T04:56:33.024Z,0.00
2022-12-23T04:59:02.260Z,0.10
2022-12-23T05:01:29.223Z,0.22
2022-12-23T05:03:55.917Z,0.00
2022-12-23T05:06:22.445Z,0.30
2022-12-23T05:08:48.967Z,0.77
2022-12-23T05:11:15.434Z,0.00
2022-12-23T05:13:41.870Z,0.35
2022-12-23T05:16:08.439Z,0.00
2022-12-23T05:18:35.211Z,0.15
2022-12-23T05:21:01.691Z,1.17
2022-12-23T05:23:28.474Z,0.00
2022-12-23T05:25:55.010Z,1.25
2022-12-23T05:28:22.730Z,0.13
2022-12-23T05:30:49.417Z,0.10
2022-12-23T05:33:15.947Z,0.10
2022-12-23T05:35:42.501Z,1.38
2022-12-23T05:38:09.013Z,0.20
2022-12-23T05:40:35.605Z,0.45
2022-12-23T05:43:02.340Z,0.10
2022-12-23T05:45:28.964Z,0.17
2022-12-23T05:47:55.562Z,0.10
2022-12-23T05:50:22.108Z,0.10
2022-12-23T05:52:48.593Z,0.70
2022-12-23T05:55:15.112Z,2.38
2022-12-23T05:57:41.584Z,0.30
2022-12-23T06:00:08.948Z,0.10
2022-12-23T06:02:35.699Z,0.55
2022-12-23T06:05:02.451Z,0.38
2022-12-23T06:07:28.960Z,0.20
2022-12-23T06:09:55.479Z,0.15
2022-12-23T06:12:21.984Z,0.85
2022-12-23T06:14:48.491Z,0.90
2022-12-23T06:17:15.054Z,0.40
2022-12-23T06:19:41.538Z,1.60
2022-12-23T06:22:08.084Z,2.00
2022-12-23T06:24:34.687Z,0.20
2022-12-23T06:27:01.272Z,0.22
2022-12-23T06:29:27.769Z,0.57
2022-12-23T06:31:54.291Z,1.25
2022-12-23T06:34:20.803Z,0.50
2022-12-23T06:36:47.246Z,0.63
2022-12-23T06:39:14.227Z,0.98
2022-12-23T06:41:40.822Z,1.65
2022-12-23T06:44:07.693Z,2.28
2022-12-23T06:46:34.240Z,1.63
2022-12-23T06:49:00.684Z,2.13
2022-12-23T06:51:27.250Z,2.15
2022-12-23T06:53:53.880Z,1.42
2022-12-23T06:56:20.620Z,2.95
2022-12-23T06:58:47.195Z,4.20
2022-12-23T07:01:13.705Z,0.43
2022-12-23T07:03:40.423Z,0.77
2022-12-23T07:06:07.309Z,3.33
2022-12-23T07:08:33.953Z,2.13
2022-12-23T07:11:01.781Z,0.85
2022-12-23T07:13:28.291Z,2.40
2022-12-23T07:15:55.115Z,3.67
2022-12-23T07:18:22.989Z,1.65
2022-12-23T07:20:50.380Z,3.38
2022-12-23T07:23:17.013Z,1.77
2022-12-23T07:25:43.501Z,1.10
2022-12-23T07:28:10.044Z,2.92
2022-12-23T07:30:36.800Z,4.40
2022-12-23T07:33:03.280Z,1.88
2022-12-23T07:35:29.914Z,6.03
2022-12-23T07:37:56.710Z,3.47
2022-12-23T07:40:23.985Z,3.92
2022-12-23T07:42:54.330Z,3.80
2022-12-23T07:45:20.832Z,4.43
2022-12-23T07:47:47.520Z,3.67
2022-12-23T07:50:13.993Z,3.30
2022-12-23T07:52:40.472Z,3.75
2022-12-23T07:55:07.305Z,3.30
2022-12-23T07:57:37.810Z,4.85
2022-12-23T08:00:09.920Z,5.10
2022-12-23T08:02:36.634Z,7.88
2022-12-23T08:05:03.309Z,3.92
2022-12-23T08:07:29.889Z,8.00
2022-12-23T08:09:56.342Z,3.53
2022-12-23T08:12:22.839Z,2.03
2022-12-23T08:14:50.414Z,6.10
2022-12-23T08:17:16.940Z,2.10
2022-12-23T08:19:43.419Z,2.33
2022-12-23T08:22:09.852Z,2.38
2022-12-23T08:24:36.336Z,2.78
2022-12-23T08:27:02.787Z,2.35
2022-12-23T08:29:35.792Z,4.35
2022-12-23T08:32:03.225Z,4.18
2022-12-23T08:34:29.787Z,2.65
2022-12-23T08:36:56.311Z,1.00
2022-12-23T08:39:22.905Z,2.13
2022-12-23T08:41:49.731Z,1.67
2022-12-23T08:44:16.877Z,1.92
2022-12-23T08:46:44.640Z,2.97
2022-12-23T08:49:11.565Z,2.25
2022-12-23T08:51:38.733Z,1.55
2022-12-23T08:54:06.128Z,2.40
2022-12-23T08:56:36.320Z,2.83
2022-12-23T08:59:03.602Z,2.60
2022-12-23T09:01:33.214Z,2.45
2022-12-23T09:04:04.174Z,1.42
2022-12-23T09:06:35.389Z,4.38
2022-12-23T09:09:02.014Z,7.90
2022-12-23T09:11:29.779Z,2.28
2022-12-23T09:13:59.043Z,4.10
2022-12-23T09:16:25.842Z,1.92
2022-12-23T09:18:52.420Z,3.55
2022-12-23T09:21:21.953Z,4.07
2022-12-23T09:23:48.935Z,4.72
2022-12-23T09:26:19.953Z,2.65
2022-12-23T09:28:46.459Z,2.58
2022-12-23T09:31:14.277Z,2.92
2022-12-23T09:33:42.746Z,2.05
2022-12-23T09:36:09.834Z,1.73
2022-12-23T09:38:38.047Z,2.88
2022-12-23T09:41:34.010Z,1.85
2022-12-23T09:44:17.896Z,1.10
2022-12-23T09:46:57.220Z,2.70
2022-12-23T09:49:24.641Z,3.38
2022-12-23T09:51:56.035Z,6.00
2022-12-23T09:54:25.410Z,4.88
2022-12-23T09:57:03.930Z,3.53
2022-12-23T10:00:07.349Z,0.93
2022-12-23T10:03:01.363Z,2.22
2022-12-23T10:05:51.563Z,3.25
2022-12-23T10:08:35.241Z,1.33
2022-12-23T10:11:11.109Z,4.75
2022-12-23T10:13:48.645Z,4.20
2022-12-23T10:16:20.382Z,1.27
2022-12-23T10:19:08.498Z,1.70
2022-12-23T10:21:47.631Z,2.50
2022-12-23T10:24:28.064Z,1.45
2022-12-23T10:26:57.786Z,1.05
2022-12-23T10:29:27.047Z,0.52
2022-12-23T10:32:18.777Z,1.08
2022-12-23T10:34:56.758Z,1.08
2022-12-23T10:38:03.387Z,1.65
2022-12-23T10:40:40.832Z,1.13
2022-12-23T10:43:19.649Z,2.10
2022-12-23T10:45:58.380Z,1.48
2022-12-23T10:48:37.639Z,0.57
2022-12-23T10:51:28.624Z,1.00
2022-12-23T10:54:11.517Z,1.95
2022-12-23T10:56:38.840Z,3.28
2022-12-23T10:59:07.289Z,0.43
2022-12-23T11:01:34.495Z,0.55
2022-12-23T11:04:13.291Z,1.90
2022-12-23T11:06:43.764Z,1.30
2022-12-23T11:09:37.853Z,0.63
2022-12-23T11:12:09.706Z,1.23
2022-12-23T11:14:42.527Z,1.27
2022-12-23T11:17:30.444Z,1.63
2022-12-23T11:20:16.197Z,2.47
2022-12-23T11:22:58.367Z,0.60
2022-12-23T11:25:24.848Z,1.35
2022-12-23T11:27:56.200Z,3.53
2022-12-23T11:30:22.759Z,27.40
2022-12-23T11:32:50.641Z,37.60
2022-12-23T11:35:37.513Z,61.47
2022-12-23T11:38:04.364Z,20.83
2022-12-23T11:40:35.641Z,2.75
2022-12-23T11:43:06.024Z,11.63
2022-12-23T11:45:37.329Z,1.55
2022-12-23T11:48:05.600Z,1.58
2022-12-23T11:50:36.580Z,6.18
2022-12-23T11:53:09.200Z,1.58
2022-12-23T11:55:35.909Z,3.72
2022-12-23T11:58:03.147Z,0.35
2022-12-23T12:00:41.167Z,0.45
2022-12-23T12:03:17.116Z,0.28
2022-12-23T12:05:49.860Z,0.30
2022-12-23T12:08:22.338Z,1.85
2022-12-23T12:10:52.610Z,1.47
2022-12-23T12:13:29.782Z,0.50
2022-12-23T12:16:14.376Z,0.43
2022-12-23T12:18:44.286Z,1.38
2022-12-23T12:21:15.990Z,1.20
2022-12-23T12:24:14.708Z,2.95
2022-12-23T12:26:41.164Z,2.38
2022-12-23T12:29:30.817Z,2.47
2022-12-23T12:31:59.963Z,4.45
2022-12-23T12:34:41.459Z,3.05
2022-12-23T12:37:26.244Z,1.70
2022-12-23T12:40:08.937Z,6.18
2022-12-23T12:42:35.597Z,3.23
2022-12-23T12:45:20.712Z,3.97
2022-12-23T12:48:24.426Z,2.05
2022-12-23T12:51:22.988Z,1.55
2022-12-23T12:54:18.416Z,4.60
2022-12-23T12:56:52.637Z,5.63
2022-12-23T12:59:25.715Z,2.08
2022-12-23T13:02:10.137Z,9.83
2022-12-23T13:04:57.865Z,2.85
2022-12-23T13:07:49.463Z,3.60
2022-12-23T13:10:38.805Z,2.75
2022-12-23T13:13:43.775Z,1.35
2022-12-23T13:16:34.846Z,1.77
2022-12-23T13:19:14.420Z,1.65
2022-12-23T13:21:50.364Z,2.90
2022-12-23T13:24:27.668Z,2.13
2022-12-23T13:27:00.646Z,0.20
2022-12-23T13:30:04.328Z,0.50
2022-12-23T13:32:41.673Z,1.90
2022-12-23T13:35:18.835Z,0.63
2022-12-23T13:37:59.117Z,2.00
2022-12-23T13:40:41.670Z,4.15
2022-12-23T13:43:23.009Z,0.52
2022-12-23T13:45:52.471Z,0.52
2022-12-23T13:48:44.648Z,0.73
2022-12-23T13:51:18.973Z,0.30
2022-12-23T13:54:17.049Z,0.28
2022-12-23T13:56:47.103Z,1.58
2022-12-23T13:59:15.866Z,0.43
2022-12-23T14:01:42.446Z,1.15
2022-12-23T14:04:35.778Z,0.95
2022-12-23T14:07:19.015Z,2.65
2022-12-23T14:09:51.911Z,0.50
2022-12-23T14:12:22.416Z,0.45
2022-12-23T14:15:16.720Z,1.38
2022-12-23T14:17:50.354Z,0.47
2022-12-23T14:20:33.451Z,0.30
2022-12-23T14:23:21.646Z,0.40
2022-12-23T14:26:00.252Z,0.75
2022-12-23T14:28:55.327Z,1.70
2022-12-23T14:31:36.005Z,0.63
2022-12-23T14:34:17.570Z,1.13
2022-12-23T14:37:15.167Z,1.75
2022-12-23T14:39:41.812Z,0.28
2022-12-23T14:42:16.440Z,0.80
2022-12-23T14:44:46.357Z,0.57
2022-12-23T14:47:35.217Z,3.60
2022-12-23T14:50:34.381Z,0.82
2022-12-23T14:53:03.510Z,0.50
2022-12-23T14:55:31.616Z,2.03
2022-12-23T14:58:10.601Z,0.40
2022-12-23T15:00:47.207Z,0.35
2022-12-23T15:03:14.444Z,1.88
2022-12-23T15:05:41.074Z,0.40
2022-12-23T15:08:27.175Z,1.50
2022-12-23T15:10:53.994Z,0.50
2022-12-23T15:13:20.660Z,0.50
2022-12-23T15:16:00.986Z,1.02
2022-12-23T15:18:28.898Z,0.90
2022-12-23T15:21:03.407Z,1.30
2022-12-23T15:23:30.516Z,0.70
2022-12-23T15:26:00.330Z,3.33
2022-12-23T15:28:37.263Z,1.52
2022-12-23T15:31:05.414Z,1.25
2022-12-23T15:34:02.767Z,2.90
2022-12-23T15:36:35.715Z,1.27
2022-12-23T15:39:08.607Z,1.67
2022-12-23T15:41:43.568Z,1.83
2022-12-23T15:44:14.334Z,1.67
2022-12-23T15:46:40.948Z,0.63
2022-12-23T15:49:11.300Z,1.83
2022-12-23T15:52:06.440Z,2.25
2022-12-23T15:54:39.870Z,0.73
2022-12-23T15:57:06.523Z,0.98
2022-12-23T15:59:39.843Z,3.03
2022-12-23T16:05:29.926Z,0.50
2022-12-23T16:08:16.107Z,1.13
2022-12-23T16:10:55.285Z,1.15
2022-12-23T16:13:21.764Z,0.30
2022-12-23T16:15:48.405Z,1.20
2022-12-23T16:18:23.415Z,0.43
2022-12-23T16:20:53.914Z,0.30
2022-12-23T16:23:21.486Z,0.88
2022-12-23T16:25:51.129Z,0.90
2022-12-23T16:28:23.996Z,0.30
